Data for 09/21/2016

Time Sea-Level Adjusted Pressure Absolute Pressure Temperature Relative Humidity Dew Point   
(mb) (inHg) (mb) (inHg) (C) (F) (%) (C) (F)
00:05 1020 30.12 849 25.07 10.3 50.5 63 3.6 38.5
00:10 1020 30.12 849 25.07 10.2 50.3 64 3.7 38.7
00:15 1020 30.12 849 25.07 10 50.1 64 3.6 38.6
00:20 1020 30.12 849 25.07 9.9 49.8 64 3.5 38.2
00:25 1020 30.12 849 25.07 9.9 49.7 64 3.3 38
00:30 1020 30.12 849 25.07 9.8 49.7 64 3.4 38.1
00:35 1020 30.12 849 25.07 9.7 49.5 64 3.4 38.1
00:40 1020 30.12 849 25.07 9.7 49.4 65 3.3 38
00:45 1020 30.12 849 25.07 9.6 49.3 64 3.2 37.7
00:50 1020 30.12 849 25.07 9.6 49.3 64 3.1 37.7
00:55 1020 30.12 849 25.07 9.6 49.3 63 2.9 37.3
01:00 1020 30.12 849 25.07 9.6 49.3 63 3 37.5
01:05 1020 30.12 849 25.07 9.6 49.3 63 3 37.4
01:10 1020 30.12 849 25.07 9.6 49.3 63 2.9 37.3
01:15 1020 30.12 849 25.07 9.6 49.3 63 2.9 37.2
01:20 1020 30.12 849 25.07 9.7 49.4 63 3 37.4
01:25 1020 30.12 849 25.07 9.5 49.1 64 3.1 37.6
01:30 1020 30.12 849 25.07 9.3 48.7 65 3.1 37.7
01:35 1020 30.12 849 25.07 9.1 48.5 66 3.2 37.8
01:40 1020 30.12 849 25.07 9.1 48.3 67 3.3 37.9
01:45 1020 30.12 849 25.07 9 48.3 67 3.3 37.9
01:50 1020 30.12 849 25.07 9 48.1 67 3.3 37.9
01:55 1020 30.12 849 25.07 9 48.1 68 3.3 38
02:00 1020 30.12 849 25.07 9 48.1 67 3.3 37.9
02:05 1020 30.12 850 25.1 9 48.1 68 3.3 38
02:10 1021 30.15 850 25.1 9 48.2 68 3.4 38.2
02:15 1021 30.15 850 25.1 9 48.2 68 3.4 38.2
02:20 1021 30.15 850 25.1 9.1 48.3 68 3.4 38.2
02:25 1021 30.15 850 25.1 9.1 48.4 67 3.4 38.1
02:30 1021 30.15 850 25.1 9.2 48.5 67 3.4 38.1
02:35 1021 30.15 850 25.1 9.2 48.5 66 3.2 37.7
02:40 1021 30.15 850 25.1 9.3 48.8 65 3.1 37.6
02:45 1021 30.15 850 25.1 9.4 48.8 64 3 37.3
02:50 1021 30.15 850 25.1 9.4 48.9 63 2.8 37.1
02:55 1021 30.15 850 25.1 9.3 48.8 65 3.1 37.6
03:00 1021 30.15 850 25.1 9.2 48.5 65 2.9 37.2
03:05 1021 30.15 850 25.1 9.1 48.5 64 2.7 36.8
03:10 1021 30.15 850 25.1 9.2 48.5 64 2.7 36.8
03:15 1021 30.15 850 25.1 9.1 48.3 65 2.8 37
03:20 1021 30.15 850 25.1 9 48.1 66 2.9 37.2
03:25 1021 30.15 850 25.1 8.8 47.9 65 2.7 36.8
03:30 1021 30.15 850 25.1 8.8 47.8 65 2.5 36.6
03:35 1020 30.12 850 25.1 8.8 47.8 64 2.4 36.4
03:40 1020 30.12 850 25.1 8.7 47.6 64 2.3 36.1
03:45 1021 30.15 850 25.1 8.6 47.4 64 2.1 35.8
03:50 1021 30.15 850 25.1 8.5 47.3 64 2.2 36
03:55 1021 30.15 850 25.1 8.4 47.2 64 2 35.6
04:00 1021 30.15 850 25.1 8.4 47.2 64 2.1 35.8
04:05 1021 30.15 850 25.1 8.4 47.1 64 2 35.7
04:10 1021 30.15 850 25.1 8.4 47.1 64 2 35.7
04:15 1021 30.15 850 25.1 8.5 47.2 63 1.8 35.3
04:20 1021 30.15 850 25.1 8.6 47.4 63 2 35.7
04:25 1021 30.15 850 25.1 8.5 47.2 64 2.1 35.8
04:30 1021 30.15 850 25.1 8.3 47 65 2.2 35.9
04:35 1021 30.15 850 25.1 8.2 46.8 66 2.2 35.9
04:40 1021 30.15 850 25.1 8.1 46.6 66 2.2 36
04:45 1021 30.15 850 25.1 8.1 46.5 68 2.5 36.5
04:50 1021 30.15 850 25.1 8 46.3 68 2.5 36.4
04:55 1021 30.15 850 25.1 8 46.4 68 2.5 36.5
05:00 1021 30.15 850 25.1 8 46.5 68 2.5 36.5
05:05 1021 30.15 850 25.1 8 46.4 68 2.5 36.5
05:10 1021 30.15 850 25.1 8 46.4 68 2.4 36.4
05:15 1021 30.15 850 25.1 8 46.4 68 2.5 36.5
05:20 1021 30.15 850 25.1 8 46.3 68 2.5 36.5
05:25 1021 30.15 850 25.1 8 46.3 68 2.5 36.4
05:30 1021 30.15 850 25.1 8 46.3 68 2.5 36.5
05:35 1021 30.15 850 25.1 8 46.3 68 2.5 36.5
05:40 1021 30.15 850 25.1 7.9 46.2 69 2.6 36.7
05:45 1021 30.15 850 25.1 7.8 46.1 69 2.5 36.6
05:50 1020 30.12 850 25.1 7.8 46.1 69 2.5 36.6
05:55 1021 30.15 850 25.1 7.9 46.1 69 2.6 36.6
06:00 1021 30.15 850 25.1 7.9 46.2 69 2.6 36.7
06:05 1021 30.15 850 25.1 7.9 46.1 70 2.7 36.8
06:10 1021 30.15 850 25.1 7.8 46.1 69 2.6 36.7
06:15 1021 30.15 850 25.1 7.8 46.1 70 2.6 36.7
06:20 1021 30.15 850 25.1 7.8 46.1 70 2.7 36.8
06:25 1021 30.15 850 25.1 7.8 46.1 70 2.7 36.9
06:30 1020 30.12 849 25.07 7.8 46 70 2.7 36.8
06:35 1020 30.12 849 25.07 7.8 46 70 2.7 36.8
06:40 1020 30.12 850 25.1 7.8 46 70 2.7 36.8
06:45 1021 30.15 850 25.1 7.7 45.9 71 2.7 36.9
06:50 1021 30.15 850 25.1 7.7 45.9 70 2.6 36.7
06:55 1020 30.12 850 25.1 7.8 46 70 2.7 36.9
07:00 1020 30.12 850 25.1 7.7 45.8 71 2.8 37.1
07:05 1021 30.15 850 25.1 7.6 45.6 71 2.8 37
07:10 1021 30.15 850 25.1 7.6 45.6 71 2.8 37
07:15 1021 30.15 850 25.1 7.6 45.7 72 2.8 37.1
07:20 1021 30.15 850 25.1 7.6 45.7 71 2.8 37
07:25 1021 30.15 850 25.1 7.6 45.8 72 2.9 37.2
07:30 1021 30.15 850 25.1 7.7 45.8 72 2.9 37.2
07:35 1021 30.15 850 25.1 7.7 45.8 72 2.9 37.2
07:40 1021 30.15 850 25.1 7.7 45.9 72 2.9 37.3
07:45 1021 30.15 850 25.1 7.8 46 71 2.9 37.3
07:50 1021 30.15 850 25.1 7.8 46 72 3 37.5
07:55 1021 30.15 850 25.1 7.8 46 72 3 37.4
08:00 1021 30.15 850 25.1 7.8 46.1 72 3.1 37.6
08:05 1021 30.15 850 25.1 7.8 46.1 72 3.2 37.7
08:10 1021 30.15 850 25.1 7.9 46.1 72 3.2 37.8
08:15 1021 30.15 851 25.13 7.9 46.2 72 3.2 37.8
08:20 1021 30.15 851 25.13 7.9 46.3 72 3.2 37.8
08:25 1022 30.18 851 25.13 7.9 46.3 72 3.3 37.9
08:30 1022 30.18 851 25.13 7.9 46.3 73 3.3 38
08:35 1022 30.18 851 25.13 8 46.4 73 3.4 38.1
08:40 1022 30.18 851 25.13 8 46.4 73 3.4 38.2
08:45 1022 30.18 851 25.13 8 46.4 73 3.5 38.2
08:50 1021 30.15 850 25.1 7.9 46.3 73 3.4 38.2
08:55 1020 30.12 850 25.1 7.9 46.3 73 3.5 38.2
09:00 1021 30.15 850 25.1 7.9 46.3 74 3.6 38.4
09:05 1021 30.15 850 25.1 8 46.3 74 3.6 38.5
09:10 1021 30.15 850 25.1 8 46.3 74 3.6 38.4
09:15 1021 30.15 850 25.1 8 46.4 73 3.5 38.3
09:20 1021 30.15 850 25.1 8 46.4 74 3.6 38.5
09:25 1021 30.15 850 25.1 8 46.4 74 3.6 38.5
09:30 1021 30.15 850 25.1 8 46.5 74 3.6 38.5
09:35 1021 30.15 850 25.1 8 46.5 74 3.6 38.5
09:40 1021 30.15 850 25.1 8.1 46.6 73 3.6 38.5
09:45 1021 30.15 850 25.1 8.4 47.1 72 3.6 38.5
09:50 1021 30.15 850 25.1 8.4 47.1 74 4 39.2
09:55 1021 30.15 850 25.1 8.2 46.8 74 3.9 39
10:00 1021 30.15 850 25.1 8.3 46.9 73 3.7 38.7
10:05 1021 30.15 850 25.1 8.4 47.2 72 3.7 38.7
10:10 1021 30.15 851 25.13 8.5 47.2 72 3.8 38.8
10:15 1021 30.15 851 25.13 8.6 47.4 73 4 39.2
10:20 1021 30.15 851 25.13 8.6 47.5 73 4.1 39.3
10:25 1021 30.15 850 25.1 8.5 47.3 74 4.2 39.6
10:30 1022 30.18 851 25.13 8.4 47.1 75 4.2 39.5
10:35 1022 30.18 851 25.13 8.3 46.9 76 4.2 39.6
10:40 1022 30.18 851 25.13 8.2 46.7 76 4.1 39.4
10:45 1022 30.18 851 25.13 8.2 46.8 76 4.2 39.5
10:50 1022 30.18 851 25.13 8.2 46.7 76 4.3 39.7
10:55 1022 30.18 851 25.13 8.1 46.6 78 4.5 40
11:00 1022 30.18 851 25.13 8.1 46.5 78 4.5 40.2
11:05 1022 30.18 851 25.13 8 46.4 80 4.7 40.5
11:10 1022 30.18 851 25.13 7.9 46.3 80 4.6 40.3
11:15 1022 30.18 851 25.13 7.9 46.2 80 4.6 40.4
11:20 1022 30.18 851 25.13 7.9 46.2 80 4.6 40.3
11:25 1021 30.15 850 25.1 7.8 46.1 81 4.9 40.8
11:30 1021 30.15 850 25.1 7.8 46 82 4.8 40.7
11:35 1021 30.15 851 25.13 7.8 46 83 5 41
11:40 1022 30.18 851 25.13 7.8 46 83 5.1 41.2
11:45 1022 30.18 851 25.13 7.8 46.1 82 5 41
11:50 1021 30.15 851 25.13 7.9 46.3 81 4.9 40.8
11:55 1021 30.15 851 25.13 8 46.4 80 4.8 40.7
12:00 1021 30.15 851 25.13 8.1 46.6 79 4.6 40.4
12:05 1021 30.15 851 25.13 8.1 46.7 79 4.8 40.7
12:10 1021 30.15 850 25.1 8.1 46.5 81 5 41
12:15 1021 30.15 850 25.1 7.9 46.2 83 5.2 41.3
12:20 1021 30.15 850 25.1 7.7 45.9 85 5.3 41.6
12:25 1020 30.12 850 25.1 7.7 45.8 85 5.4 41.7
12:30 1020 30.12 849 25.07 7.6 45.7 86 5.4 41.7
12:35 1020 30.12 849 25.07 7.6 45.6 85 5.3 41.5
12:40 1020 30.12 849 25.07 7.5 45.6 85 5.2 41.4
12:45 1020 30.12 849 25.07 7.6 45.6 85 5.2 41.4
12:50 1020 30.12 849 25.07 7.6 45.6 85 5.2 41.4
12:55 1021 30.15 850 25.1 7.7 45.8 84 5.2 41.3
13:00 1021 30.15 850 25.1 7.9 46.1 85 5.4 41.8
13:05 1021 30.15 850 25.1 8.1 46.5 84 5.5 41.9
13:10 1021 30.15 850 25.1 8.3 46.9 80 5 41.1
13:15 1021 30.15 850 25.1 8.5 47.3 80 5.3 41.5
13:20 1021 30.15 850 25.1 8.6 47.5 82 5.6 42.2
13:25 1021 30.15 850 25.1 8.6 47.5 81 5.5 41.9
13:30 1021 30.15 850 25.1 8.7 47.7 81 5.6 42.1
13:35 1021 30.15 850 25.1 8.6 47.6 81 5.5 42
13:40 1021 30.15 850 25.1 8.7 47.6 80 5.4 41.8
13:45 1021 30.15 850 25.1 8.7 47.7 81 5.6 42
13:50 1021 30.15 850 25.1 8.7 47.7 80 5.6 42
13:55 1021 30.15 850 25.1 8.7 47.7 81 5.7 42.2
14:00 1021 30.15 850 25.1 8.7 47.7 81 5.6 42.1
14:05 1021 30.15 850 25.1 8.8 47.8 80 5.6 42
14:10 1021 30.15 850 25.1 8.8 47.9 81 5.7 42.3
14:15 1021 30.15 850 25.1 8.8 47.9 81 5.7 42.3
14:20 1021 30.15 850 25.1 8.9 47.9 80 5.6 42.1
14:25 1021 30.15 850 25.1 8.8 47.9 80 5.6 42.2
14:30 1021 30.15 850 25.1 8.7 47.7 80 5.6 42
14:35 1021 30.15 850 25.1 8.6 47.4 82 5.7 42.3
14:40 1021 30.15 850 25.1 8.4 47.2 83 5.7 42.2
14:45 1021 30.15 850 25.1 8.4 47.1 84 5.9 42.5
14:50 1021 30.15 850 25.1 8.4 47.1 83 5.7 42.3
14:55 1021 30.15 850 25.1 8.5 47.3 83 5.7 42.3
15:00 1020 30.12 850 25.1 8.6 47.5 83 5.9 42.6
15:05 1020 30.12 849 25.07 8.6 47.4 83 5.8 42.5
15:10 1020 30.12 849 25.07 8.5 47.3 83 5.8 42.4
15:15 1020 30.12 849 25.07 8.6 47.4 83 5.9 42.6
15:20 1020 30.12 849 25.07 8.6 47.5 83 5.9 42.7
15:25 1020 30.12 850 25.1 8.7 47.6 84 6.1 42.9
15:30 1020 30.12 849 25.07 8.6 47.4 85 6.2 43.2
15:35 1020 30.12 849 25.07 8.5 47.4 86 6.3 43.3
15:40 1020 30.12 849 25.07 8.6 47.4 85 6.2 43.1
15:45 1020 30.12 849 25.07 8.7 47.6 84 6.2 43.1
15:50 1020 30.12 849 25.07 8.7 47.6 84 6.2 43.1
15:55 1020 30.12 849 25.07 8.7 47.7 84 6.2 43.1
16:00 1020 30.12 849 25.07 8.7 47.6 85 6.3 43.3
16:05 1020 30.12 849 25.07 8.7 47.7 84 6.2 43.2
16:10 1020 30.12 849 25.07 8.8 47.8 85 6.5 43.6
16:15 1020 30.12 849 25.07 8.8 47.9 84 6.3 43.3
16:20 1020 30.12 849 25.07 8.9 47.9 84 6.4 43.5
16:25 1020 30.12 849 25.07 8.9 48 85 6.5 43.7
16:30 1020 30.12 849 25.07 8.8 47.8 86 6.5 43.7
16:35 1020 30.12 849 25.07 8.8 47.8 85 6.4 43.5
16:40 1020 30.12 849 25.07 8.8 47.9 84 6.3 43.4
16:45 1020 30.12 849 25.07 8.9 47.9 85 6.5 43.7
16:50 1020 30.12 849 25.07 8.9 47.9 85 6.4 43.5
16:55 1020 30.12 849 25.07 8.9 47.9 84 6.3 43.3
17:00 1020 30.12 849 25.07 8.8 47.9 84 6.3 43.4
17:05 1020 30.12 849 25.07 8.8 47.8 85 6.4 43.6
17:10 1020 30.12 849 25.07 8.8 47.8 85 6.4 43.4
17:15 1020 30.12 849 25.07 8.8 47.8 84 6.3 43.3
17:20 1020 30.12 849 25.07 8.8 47.9 84 6.2 43.1
17:25 1019 30.09 849 25.07 8.9 48 83 6.2 43.1
17:30 1019 30.09 849 25.07 9 48.1 83 6.3 43.3
17:35 1019 30.09 849 25.07 9 48.2 82 6.1 43
17:40 1019 30.09 849 25.07 9 48.2 82 6.1 42.9
17:45 1019 30.09 849 25.07 9 48.3 81 6 42.8
17:50 1019 30.09 848 25.04 9 48.2 82 6 42.8
17:55 1019 30.09 848 25.04 8.9 48.1 82 6 42.8
18:00 1019 30.09 849 25.07 8.9 48.1 82 6 42.8
18:05 1019 30.09 849 25.07 9 48.2 81 5.9 42.7
18:10 1019 30.09 848 25.04 9 48.2 81 6 42.8
18:15 1019 30.09 848 25.04 9 48.2 82 6 42.8
18:20 1019 30.09 848 25.04 9 48.2 81 6 42.8
18:25 1019 30.09 848 25.04 9 48.3 81 5.9 42.7
18:30 1019 30.09 848 25.04 9 48.2 81 5.9 42.6
18:35 1019 30.09 848 25.04 9 48.2 81 5.9 42.6
18:40 1019 30.09 848 25.04 9 48.2 81 5.8 42.5
18:45 1019 30.09 848 25.04 9 48.2 80 5.7 42.3
18:50 1019 30.09 848 25.04 9.1 48.3 80 5.7 42.3
18:55 1019 30.09 848 25.04 9 48.3 79 5.7 42.2
19:00 1019 30.09 848 25.04 9 48.2 80 5.8 42.4
19:05 1019 30.09 848 25.04 9 48.3 79 5.7 42.2
19:10 1019 30.09 848 25.04 9.1 48.3 80 5.8 42.4
19:15 1019 30.09 848 25.04 9 48.3 79 5.7 42.2
19:20 1019 30.09 848 25.04 9 48.3 80 5.7 42.3
19:25 1019 30.09 848 25.04 9 48.3 80 5.7 42.3
19:30 1019 30.09 848 25.04 9 48.3 80 5.7 42.3
19:35 1019 30.09 848 25.04 9 48.2 79 5.6 42.1
19:40 1019 30.09 848 25.04 9 48.3 80 5.7 42.3
19:45 1019 30.09 848 25.04 9 48.1 80 5.7 42.3
19:50 1019 30.09 848 25.04 8.9 48.1 80 5.6 42.1
19:55 1019 30.09 848 25.04 8.9 48.1 80 5.7 42.2
20:00 1019 30.09 848 25.04 8.9 48.1 80 5.6 42.2
20:05 1019 30.09 848 25.04 8.9 48.1 80 5.6 42.1
20:10 1019 30.09 848 25.04 9 48.1 80 5.7 42.3
20:15 1019 30.09 848 25.04 8.9 48 80 5.7 42.3
20:20 1019 30.09 848 25.04 8.9 48 80 5.7 42.3
20:25 1019 30.09 848 25.04 8.8 47.9 81 5.7 42.3
20:30 1019 30.09 848 25.04 8.8 47.9 81 5.7 42.2
20:35 1019 30.09 848 25.04 8.8 47.9 80 5.5 41.9
20:40 1019 30.09 848 25.04 8.9 48 80 5.6 42
20:45 1019 30.09 848 25.04 8.9 48.1 79 5.6 42
20:50 1019 30.09 848 25.04 9 48.2 78 5.4 41.8
20:55 1019 30.09 848 25.04 9 48.2 78 5.4 41.7
21:00 1019 30.09 848 25.04 8.9 48.1 79 5.5 41.9
21:05 1019 30.09 848 25.04 8.8 47.9 80 5.6 42
21:10 1018 30.06 848 25.04 8.7 47.7 81 5.6 42.1
21:15 1018 30.06 848 25.04 8.7 47.6 80 5.4 41.8
21:20 1019 30.09 848 25.04 8.7 47.7 79 5.3 41.6
21:25 1019 30.09 848 25.04 8.8 47.8 79 5.4 41.7
21:30 1019 30.09 848 25.04 8.8 47.8 79 5.4 41.7
21:35 1019 30.09 848 25.04 8.8 47.8 79 5.3 41.6
21:40 1019 30.09 848 25.04 8.8 47.9 79 5.5 41.8
21:45 1019 30.09 848 25.04 8.8 47.9 79 5.4 41.8
21:50 1019 30.09 848 25.04 8.8 47.9 80 5.6 42
21:55 1019 30.09 848 25.04 8.7 47.7 81 5.6 42.1
22:00 1019 30.09 848 25.04 8.7 47.6 81 5.6 42
22:05 1019 30.09 848 25.04 8.6 47.6 81 5.5 41.9
22:10 1019 30.09 848 25.04 8.7 47.6 80 5.5 41.9
22:15 1018 30.06 847 25.01 8.7 47.6 81 5.5 42
22:20 1018 30.06 847 25.01 8.7 47.6 80 5.4 41.7
22:25 1018 30.06 848 25.04 8.7 47.7 80 5.4 41.8
22:30 1019 30.09 848 25.04 8.7 47.6 79 5.3 41.6
22:35 1018 30.06 848 25.04 8.7 47.7 79 5.3 41.6
22:40 1018 30.06 848 25.04 8.7 47.7 79 5.3 41.6
22:45 1018 30.06 847 25.01 8.6 47.6 80 5.4 41.6
22:50 1018 30.06 847 25.01 8.7 47.6 79 5.2 41.4
22:55 1018 30.06 848 25.04 8.7 47.6 79 5.3 41.6
23:00 1019 30.09 848 25.04 8.7 47.6 80 5.4 41.7
23:05 1019 30.09 848 25.04 8.6 47.5 80 5.4 41.7
23:10 1019 30.09 848 25.04 8.6 47.4 81 5.6 42
23:15 1019 30.09 848 25.04 8.4 47.2 83 5.8 42.4
23:20 1019 30.09 848 25.04 8.3 46.9 84 5.7 42.3
23:25 1019 30.09 848 25.04 8.2 46.8 85 5.8 42.5
23:30 1019 30.09 848 25.04 8.1 46.6 84 5.6 42.1
23:35 1018 30.06 848 25.04 8.2 46.8 85 5.9 42.7
23:40 1018 30.06 848 25.04 8.2 46.7 87 6.1 43
23:45 1018 30.06 848 25.04 8.2 46.7 88 6.3 43.3
23:50 1018 30.06 848 25.04 8 46.5 88 6.2 43.1
23:55 1018 30.06 848 25.04 8 46.4 87 6 42.8
24:00 1018 30.06 848 25.04 7.9 46.3 87 6 42.7